createdAt,value
2019-05-22T00:00:31.272Z,99.90
2019-05-22T00:03:10.467Z,99.90
2019-05-22T00:05:40.746Z,99.90
2019-05-22T00:08:10.451Z,99.90
2019-05-22T00:10:44.500Z,99.90
2019-05-22T00:13:14.699Z,99.90
2019-05-22T00:15:46.382Z,99.90
2019-05-22T00:18:16.220Z,99.90
2019-05-22T00:20:45.536Z,99.90
2019-05-22T00:23:15.546Z,99.90
2019-05-22T00:25:45.214Z,99.90
2019-05-22T00:28:14.913Z,99.90
2019-05-22T00:30:45.487Z,99.90
2019-05-22T00:33:15.997Z,99.90
2019-05-22T00:35:45.446Z,99.90
2019-05-22T00:38:15.219Z,99.90
2019-05-22T00:40:45.803Z,99.90
2019-05-22T00:43:17.740Z,99.90
2019-05-22T00:45:49.121Z,99.90
2019-05-22T00:48:21.667Z,99.90
2019-05-22T00:51:00.691Z,99.90
2019-05-22T00:53:51.388Z,99.90
2019-05-22T00:56:29.831Z,99.90
2019-05-22T00:59:06.106Z,99.90
2019-05-22T01:01:48.578Z,99.90
2019-05-22T01:04:22.863Z,99.90
2019-05-22T01:06:54.013Z,99.90
2019-05-22T01:09:39.125Z,99.90
2019-05-22T01:12:12.411Z,99.90
2019-05-22T01:14:43.106Z,99.90
2019-05-22T01:17:14.582Z,99.90
2019-05-22T01:19:45.110Z,99.90
2019-05-22T01:22:15.120Z,99.90
2019-05-22T01:24:45.226Z,99.90
2019-05-22T01:27:15.975Z,99.90
2019-05-22T01:29:46.911Z,99.90
2019-05-22T01:32:26.860Z,99.90
2019-05-22T01:34:56.067Z,99.90
2019-05-22T01:37:27.876Z,99.90
2019-05-22T01:40:03.809Z,99.90
2019-05-22T01:42:34.976Z,99.90
2019-05-22T01:45:07.029Z,99.90
2019-05-22T01:47:42.872Z,99.90
2019-05-22T01:50:15.886Z,99.90
2019-05-22T01:52:48.483Z,99.90
2019-05-22T01:55:18.960Z,99.90
2019-05-22T01:57:49.667Z,99.90
2019-05-22T02:00:20.127Z,99.90
2019-05-22T02:02:51.064Z,99.90
2019-05-22T02:05:21.339Z,99.90
2019-05-22T02:07:51.141Z,99.90
2019-05-22T02:10:26.009Z,99.90
2019-05-22T02:13:00.467Z,99.90
2019-05-22T02:15:30.703Z,99.90
2019-05-22T02:18:00.719Z,99.90
2019-05-22T02:20:29.311Z,99.90
2019-05-22T02:22:58.267Z,99.90
2019-05-22T02:25:28.952Z,99.90
2019-05-22T02:27:59.263Z,99.90
2019-05-22T02:30:30.448Z,99.90
2019-05-22T02:32:59.616Z,99.90
2019-05-22T02:35:29.529Z,99.90
2019-05-22T02:37:58.873Z,99.90
2019-05-22T02:40:32.632Z,99.90
2019-05-22T02:43:02.282Z,99.90
2019-05-22T02:45:31.441Z,99.90
2019-05-22T02:48:02.252Z,99.90
2019-05-22T02:50:32.966Z,99.90
2019-05-22T02:53:03.604Z,99.90
2019-05-22T02:55:33.286Z,99.90
2019-05-22T02:58:04.636Z,99.90
2019-05-22T03:00:40.037Z,99.90
2019-05-22T03:03:08.677Z,99.90
2019-05-22T03:05:37.833Z,99.90
2019-05-22T03:08:06.944Z,99.90
2019-05-22T03:10:36.288Z,99.90
2019-05-22T03:13:06.383Z,99.90
2019-05-22T03:15:35.533Z,99.90
2019-05-22T03:18:08.073Z,99.90
2019-05-22T03:20:40.352Z,99.90
2019-05-22T03:23:36.538Z,99.90
2019-05-22T03:26:07.107Z,99.90
2019-05-22T03:28:36.712Z,99.90
2019-05-22T03:31:06.849Z,99.90
2019-05-22T03:33:36.756Z,99.90
2019-05-22T03:36:11.329Z,99.90
2019-05-22T03:38:41.879Z,99.90
2019-05-22T03:41:12.815Z,99.90
2019-05-22T03:43:44.041Z,99.90
2019-05-22T03:46:31.213Z,99.90
2019-05-22T03:49:00.959Z,99.90
2019-05-22T03:51:30.610Z,99.90
2019-05-22T03:54:01.094Z,99.90
2019-05-22T03:56:31.298Z,99.90
2019-05-22T03:59:01.306Z,99.90
2019-05-22T04:01:32.824Z,99.90
2019-05-22T04:04:03.033Z,99.90
2019-05-22T04:06:33.031Z,99.90
2019-05-22T04:09:06.307Z,99.90
2019-05-22T04:11:38.664Z,99.90
2019-05-22T04:14:07.563Z,99.90
2019-05-22T04:16:37.000Z,99.90
2019-05-22T04:19:06.635Z,99.90
2019-05-22T04:21:35.546Z,99.90
2019-05-22T04:24:04.253Z,99.90
2019-05-22T04:26:33.299Z,99.90
2019-05-22T04:29:02.212Z,99.90
2019-05-22T04:31:42.823Z,99.90
2019-05-22T04:34:11.459Z,99.90
2019-05-22T04:36:41.289Z,99.90
2019-05-22T04:39:13.006Z,99.90
2019-05-22T04:41:41.812Z,99.90
2019-05-22T04:44:11.523Z,99.90
2019-05-22T04:46:41.543Z,99.90
2019-05-22T04:49:11.109Z,99.90
2019-05-22T04:51:39.675Z,99.90
2019-05-22T04:54:08.648Z,99.90
2019-05-22T04:56:37.470Z,99.90
2019-05-22T04:59:07.136Z,99.90
2019-05-22T05:01:36.312Z,99.90
2019-05-22T05:04:06.838Z,99.90
2019-05-22T05:06:36.354Z,99.90
2019-05-22T05:09:08.481Z,99.90
2019-05-22T05:11:38.759Z,99.90
2019-05-22T05:14:07.667Z,99.90
2019-05-22T05:16:37.137Z,99.90
2019-05-22T05:19:06.438Z,99.90
2019-05-22T05:21:35.230Z,99.90
2019-05-22T05:24:04.202Z,99.90
2019-05-22T05:26:35.040Z,99.90
2019-05-22T05:29:06.017Z,99.90
2019-05-22T05:31:35.492Z,99.90
2019-05-22T05:34:12.980Z,99.90
2019-05-22T05:36:42.904Z,99.90
2019-05-22T05:39:15.186Z,99.90
2019-05-22T05:41:43.915Z,99.90
2019-05-22T05:44:12.855Z,99.90
2019-05-22T05:46:42.028Z,99.90
2019-05-22T05:49:11.351Z,99.90
2019-05-22T05:51:42.961Z,99.90
2019-05-22T05:54:12.774Z,99.90
2019-05-22T05:56:43.471Z,99.90
2019-05-22T05:59:14.076Z,99.90
2019-05-22T06:01:47.556Z,99.90
2019-05-22T06:04:32.195Z,99.90
2019-05-22T06:07:13.640Z,99.90
2019-05-22T06:09:42.952Z,99.90
2019-05-22T06:12:13.028Z,99.90
2019-05-22T06:14:42.129Z,99.90
2019-05-22T06:17:23.923Z,99.90
2019-05-22T06:19:55.592Z,99.90
2019-05-22T06:22:24.224Z,99.90
2019-05-22T06:24:59.783Z,99.90
2019-05-22T06:27:30.632Z,99.90
2019-05-22T06:30:06.638Z,99.90
2019-05-22T06:33:08.807Z,99.90
2019-05-22T06:35:38.996Z,99.90
2019-05-22T06:38:14.335Z,99.90
2019-05-22T06:40:43.503Z,99.90
2019-05-22T06:43:22.048Z,99.90
2019-05-22T06:45:51.139Z,99.90
2019-05-22T06:48:19.799Z,99.90
2019-05-22T06:51:00.416Z,99.90
2019-05-22T06:53:19.570Z,99.90
2019-05-22T06:55:49.091Z,99.90
2019-05-22T06:58:19.725Z,99.90
2019-05-22T07:00:48.959Z,99.90
2019-05-22T07:03:19.331Z,99.90
2019-05-22T07:05:48.972Z,99.90
2019-05-22T07:08:17.609Z,99.90
2019-05-22T07:10:46.900Z,99.90
2019-05-22T07:13:17.536Z,99.90
2019-05-22T07:15:50.440Z,99.90
2019-05-22T07:18:20.441Z,99.90
2019-05-22T07:20:50.320Z,99.90
2019-05-22T07:23:21.853Z,99.90
2019-05-22T07:25:51.647Z,99.90
2019-05-22T07:28:22.832Z,99.90
2019-05-22T07:30:52.511Z,99.90
2019-05-22T07:33:23.636Z,99.90
2019-05-22T07:36:08.359Z,99.90
2019-05-22T07:38:23.411Z,99.90
2019-05-22T07:40:53.353Z,99.90
2019-05-22T07:43:22.815Z,99.90
2019-05-22T07:45:52.831Z,99.90
2019-05-22T07:48:23.611Z,99.90
2019-05-22T07:50:54.251Z,99.90
2019-05-22T07:53:25.305Z,99.90
2019-05-22T07:55:54.963Z,99.90
2019-05-22T07:58:24.137Z,99.90
2019-05-22T08:00:55.040Z,99.90
2019-05-22T08:03:25.119Z,99.90
2019-05-22T08:05:56.463Z,99.90
2019-05-22T08:08:26.519Z,99.90
2019-05-22T08:10:56.816Z,99.90
2019-05-22T08:13:26.711Z,99.90
2019-05-22T08:15:56.114Z,99.90
2019-05-22T08:18:27.164Z,99.90
2019-05-22T08:20:56.599Z,99.90
2019-05-22T08:23:26.899Z,99.90
2019-05-22T08:25:59.125Z,99.90
2019-05-22T08:28:30.411Z,99.90
2019-05-22T08:31:00.868Z,99.90
2019-05-22T08:33:31.744Z,99.90
2019-05-22T08:36:01.119Z,99.90
2019-05-22T08:38:31.202Z,99.90
2019-05-22T08:41:01.530Z,99.90
2019-05-22T08:43:31.240Z,99.90
2019-05-22T08:46:00.871Z,99.90
2019-05-22T08:48:31.570Z,99.90
2019-05-22T08:51:01.255Z,99.90
2019-05-22T08:53:44.493Z,99.90
2019-05-22T08:56:01.406Z,99.90
2019-05-22T08:58:31.181Z,99.90
2019-05-22T09:00:59.913Z,99.90
2019-05-22T09:03:29.119Z,99.90
2019-05-22T09:05:57.857Z,99.90
2019-05-22T09:08:26.440Z,99.90
2019-05-22T09:10:55.479Z,99.90
2019-05-22T09:13:24.113Z,99.90
2019-05-22T09:15:53.717Z,99.90
2019-05-22T09:18:22.696Z,99.90
2019-05-22T09:20:52.231Z,99.90
2019-05-22T09:23:22.472Z,99.90
2019-05-22T09:25:51.307Z,99.90
2019-05-22T09:28:20.442Z,99.90
2019-05-22T09:30:49.568Z,99.90
2019-05-22T09:33:18.552Z,99.90
2019-05-22T09:35:48.202Z,99.90
2019-05-22T09:38:17.577Z,99.90
2019-05-22T09:40:47.171Z,99.90
2019-05-22T09:43:16.452Z,99.90
2019-05-22T09:45:45.160Z,99.90
2019-05-22T09:48:14.204Z,99.90
2019-05-22T09:50:43.155Z,99.90
2019-05-22T09:53:12.196Z,99.90
2019-05-22T09:55:40.831Z,99.90
2019-05-22T09:58:09.955Z,99.90
2019-05-22T10:00:38.896Z,99.90
2019-05-22T10:03:07.608Z,99.90
2019-05-22T10:05:36.870Z,99.90
2019-05-22T10:08:06.708Z,99.90
2019-05-22T10:10:35.917Z,99.90
2019-05-22T10:13:05.724Z,99.90
2019-05-22T10:15:34.727Z,99.90
2019-05-22T10:18:04.737Z,99.90
2019-05-22T10:20:34.046Z,99.90
2019-05-22T10:23:14.726Z,99.90
2019-05-22T10:25:35.416Z,99.90
2019-05-22T10:28:06.767Z,99.90
2019-05-22T10:30:36.237Z,99.90
2019-05-22T10:33:04.952Z,99.90
2019-05-22T10:35:34.555Z,99.10
2019-05-22T10:38:03.737Z,95.90
2019-05-22T10:40:32.848Z,88.80
2019-05-22T10:43:02.122Z,83.20
2019-05-22T10:45:30.897Z,82.50
2019-05-22T10:47:59.788Z,84.70
2019-05-22T10:50:29.260Z,86.40
2019-05-22T10:52:58.739Z,88.70
2019-05-22T10:55:28.359Z,91.00
2019-05-22T10:57:57.320Z,90.90
2019-05-22T11:00:27.966Z,90.60
2019-05-22T11:02:57.341Z,89.00
2019-05-22T11:05:26.339Z,85.80
2019-05-22T11:07:55.084Z,86.00
2019-05-22T11:10:25.187Z,89.70
2019-05-22T11:12:54.385Z,92.00
2019-05-22T11:15:24.044Z,90.80
2019-05-22T11:17:53.762Z,88.20
2019-05-22T11:20:24.013Z,83.50
2019-05-22T11:22:53.235Z,81.80
2019-05-22T11:25:22.725Z,78.70
2019-05-22T11:27:53.714Z,81.40
2019-05-22T11:30:23.883Z,82.00
2019-05-22T11:32:53.826Z,79.30
2019-05-22T11:35:25.183Z,74.60
2019-05-22T11:37:54.033Z,72.20
2019-05-22T11:40:22.900Z,73.50
2019-05-22T11:42:53.612Z,72.40
2019-05-22T11:45:23.089Z,79.30
2019-05-22T11:47:53.606Z,84.10
2019-05-22T11:50:23.976Z,86.10
2019-05-22T11:52:53.380Z,87.40
2019-05-22T11:55:22.255Z,88.40
2019-05-22T11:57:51.803Z,88.50
2019-05-22T12:00:22.236Z,88.90
2019-05-22T12:02:51.909Z,89.60
2019-05-22T12:05:21.517Z,87.90
2019-05-22T12:07:51.100Z,89.70
2019-05-22T12:10:22.771Z,90.40
2019-05-22T12:12:53.611Z,90.90
2019-05-22T12:15:25.344Z,91.70
2019-05-22T12:17:55.066Z,90.60
2019-05-22T12:20:26.434Z,90.90
2019-05-22T12:22:56.365Z,91.30
2019-05-22T12:25:26.860Z,91.00
2019-05-22T12:27:56.900Z,91.50
2019-05-22T12:30:26.408Z,90.80
2019-05-22T12:32:56.543Z,92.10
2019-05-22T12:35:26.686Z,92.50
2019-05-22T12:37:56.092Z,92.30
2019-05-22T12:40:25.096Z,92.90
2019-05-22T12:42:54.201Z,94.40
2019-05-22T12:45:29.128Z,92.90
2019-05-22T12:47:59.108Z,93.60
2019-05-22T12:50:31.564Z,93.70
2019-05-22T12:53:03.432Z,94.30
2019-05-22T12:55:33.608Z,94.30
2019-05-22T12:58:03.155Z,93.30
2019-05-22T13:00:32.843Z,93.30
2019-05-22T13:03:03.705Z,92.80
2019-05-22T13:05:35.276Z,92.50
2019-05-22T13:08:04.471Z,93.50
2019-05-22T13:10:33.424Z,94.00
2019-05-22T13:13:02.313Z,92.50
2019-05-22T13:15:33.616Z,92.60
2019-05-22T13:18:02.958Z,92.90
2019-05-22T13:20:42.615Z,94.00
2019-05-22T13:23:07.804Z,93.40
2019-05-22T13:25:39.842Z,93.30
2019-05-22T13:28:11.547Z,93.40
2019-05-22T13:30:42.940Z,93.80
2019-05-22T13:33:16.251Z,93.10
2019-05-22T13:35:45.660Z,93.10
2019-05-22T13:38:14.871Z,93.80
2019-05-22T13:40:45.722Z,93.70
2019-05-22T13:43:14.880Z,94.10
2019-05-22T13:45:44.056Z,93.10
2019-05-22T13:48:13.385Z,93.80
2019-05-22T13:50:42.520Z,93.30
2019-05-22T13:53:13.308Z,92.90
2019-05-22T13:55:41.973Z,93.40
2019-05-22T13:58:12.345Z,93.50
2019-05-22T14:00:42.134Z,94.30
2019-05-22T14:03:11.344Z,94.20
2019-05-22T14:05:41.964Z,94.30
2019-05-22T14:08:11.736Z,94.20
2019-05-22T14:10:41.366Z,93.50
2019-05-22T14:13:10.308Z,93.30
2019-05-22T14:15:50.489Z,92.90
2019-05-22T14:18:09.683Z,92.70
2019-05-22T14:20:38.529Z,92.40
2019-05-22T14:23:07.263Z,93.00
2019-05-22T14:25:36.576Z,92.90
2019-05-22T14:28:06.749Z,93.00
2019-05-22T14:30:37.243Z,93.10
2019-05-22T14:33:06.665Z,93.20
2019-05-22T14:35:47.659Z,92.60
2019-05-22T14:38:09.082Z,91.50
2019-05-22T14:40:38.620Z,91.20
2019-05-22T14:43:08.768Z,91.60
2019-05-22T14:45:38.208Z,91.60
2019-05-22T14:48:07.424Z,91.60
2019-05-22T14:50:36.626Z,91.50
2019-05-22T14:53:05.358Z,91.70
2019-05-22T14:55:34.748Z,92.30
2019-05-22T14:58:05.610Z,92.20
2019-05-22T15:00:35.368Z,91.60
2019-05-22T15:03:05.704Z,91.80
2019-05-22T15:05:34.740Z,92.00
2019-05-22T15:08:04.644Z,92.00
2019-05-22T15:10:33.406Z,91.00
2019-05-22T15:13:02.215Z,91.60
2019-05-22T15:15:31.715Z,92.40
2019-05-22T15:18:00.583Z,92.60
2019-05-22T15:20:37.895Z,92.50
2019-05-22T15:23:07.500Z,92.30
2019-05-22T15:25:36.589Z,92.40
2019-05-22T15:28:06.391Z,93.30
2019-05-22T15:30:35.561Z,93.40
2019-05-22T15:33:05.159Z,93.80
2019-05-22T15:35:33.939Z,92.80
2019-05-22T15:38:03.140Z,92.70
2019-05-22T15:40:32.152Z,92.20
2019-05-22T15:43:01.451Z,91.90
2019-05-22T15:45:33.311Z,92.00
2019-05-22T15:48:10.132Z,90.90
2019-05-22T15:50:39.012Z,91.30
2019-05-22T15:53:14.423Z,91.90
2019-05-22T15:55:42.748Z,91.30
2019-05-22T15:58:14.117Z,91.30
2019-05-22T16:00:44.343Z,91.30
2019-05-22T16:03:20.575Z,91.20
2019-05-22T16:05:51.559Z,91.70
2019-05-22T16:08:20.360Z,91.70
2019-05-22T16:10:50.908Z,91.10
2019-05-22T16:13:22.655Z,91.30
2019-05-22T16:15:53.492Z,91.40
2019-05-22T16:18:28.494Z,91.70
2019-05-22T16:21:01.299Z,91.70
2019-05-22T16:23:31.732Z,91.30
2019-05-22T16:26:01.849Z,91.30
2019-05-22T16:28:36.047Z,91.50
2019-05-22T16:31:07.480Z,91.20
2019-05-22T16:33:37.155Z,91.00
2019-05-22T16:36:06.956Z,91.70
2019-05-22T16:38:37.646Z,91.80
2019-05-22T16:41:07.655Z,90.70
2019-05-22T16:43:48.787Z,91.10
2019-05-22T16:46:10.359Z,91.60
2019-05-22T16:48:41.527Z,92.30
2019-05-22T16:51:11.794Z,91.30
2019-05-22T16:53:41.802Z,92.20
2019-05-22T16:56:11.095Z,93.00
2019-05-22T16:58:40.340Z,92.80
2019-05-22T17:01:10.018Z,93.40
2019-05-22T17:03:40.104Z,93.90
2019-05-22T17:06:09.173Z,93.80
2019-05-22T17:08:38.278Z,93.20
2019-05-22T17:11:07.311Z,93.30
2019-05-22T17:13:37.024Z,92.60
2019-05-22T17:16:07.022Z,92.50
2019-05-22T17:18:47.257Z,93.20
2019-05-22T17:21:06.867Z,93.30
2019-05-22T17:23:35.815Z,93.10
2019-05-22T17:26:05.139Z,93.40
2019-05-22T17:28:34.311Z,93.30
2019-05-22T17:31:04.216Z,93.40
2019-05-22T17:33:33.993Z,93.00
2019-05-22T17:36:05.687Z,92.70
2019-05-22T17:38:34.616Z,93.10
2019-05-22T17:41:05.079Z,92.80
2019-05-22T17:43:34.187Z,93.40
2019-05-22T17:46:04.459Z,93.50
2019-05-22T17:48:34.598Z,94.00
2019-05-22T17:51:04.484Z,94.30
2019-05-22T17:53:34.188Z,94.50
2019-05-22T17:56:03.562Z,94.50
2019-05-22T17:58:32.631Z,94.80
2019-05-22T18:01:02.316Z,94.50
2019-05-22T18:03:31.122Z,94.60
2019-05-22T18:06:00.708Z,95.30
2019-05-22T18:08:29.633Z,95.30
2019-05-22T18:10:59.406Z,95.40
2019-05-22T18:13:28.896Z,96.10
2019-05-22T18:15:58.570Z,96.20
2019-05-22T18:18:27.215Z,96.20
2019-05-22T18:20:56.611Z,96.50
2019-05-22T18:23:25.419Z,96.50
2019-05-22T18:25:54.140Z,97.10
2019-05-22T18:28:23.015Z,97.40
2019-05-22T18:30:52.217Z,97.80
2019-05-22T18:33:21.016Z,98.20
2019-05-22T18:35:50.189Z,98.30
2019-05-22T18:38:18.923Z,98.60
2019-05-22T18:40:47.735Z,98.80
2019-05-22T18:43:18.792Z,99.40
2019-05-22T18:45:46.811Z,99.80
2019-05-22T18:48:15.847Z,99.90
2019-05-22T18:50:45.296Z,99.90
2019-05-22T18:53:14.427Z,99.90
2019-05-22T18:55:43.347Z,99.90
2019-05-22T18:58:12.476Z,99.90
2019-05-22T19:00:41.243Z,99.90
2019-05-22T19:03:10.560Z,99.90
2019-05-22T19:05:39.964Z,99.90
2019-05-22T19:08:08.599Z,99.90
2019-05-22T19:10:37.836Z,99.90
2019-05-22T19:13:07.012Z,99.90
2019-05-22T19:15:35.831Z,99.90
2019-05-22T19:18:04.754Z,99.90
2019-05-22T19:20:33.895Z,99.90
2019-05-22T19:23:02.626Z,99.90
2019-05-22T19:25:31.282Z,99.90
2019-05-22T19:28:00.048Z,99.90
2019-05-22T19:30:28.978Z,99.90
2019-05-22T19:32:57.677Z,99.90
2019-05-22T19:35:26.723Z,99.90
2019-05-22T19:37:56.689Z,99.90
2019-05-22T19:40:25.624Z,99.90
2019-05-22T19:42:54.927Z,99.90
2019-05-22T19:45:23.934Z,99.90
2019-05-22T19:47:56.012Z,99.90
2019-05-22T19:50:25.487Z,99.90
2019-05-22T19:52:55.729Z,99.90
2019-05-22T19:55:26.856Z,99.90
2019-05-22T19:57:56.276Z,99.90
2019-05-22T20:00:25.653Z,99.90
2019-05-22T20:02:57.179Z,99.90
2019-05-22T20:05:26.563Z,99.90
2019-05-22T20:07:55.759Z,99.90
2019-05-22T20:10:25.424Z,99.90
2019-05-22T20:12:55.741Z,99.90
2019-05-22T20:15:25.340Z,99.90
2019-05-22T20:17:54.211Z,99.90
2019-05-22T20:20:24.336Z,99.90
2019-05-22T20:22:53.559Z,99.90
2019-05-22T20:25:23.372Z,99.90
2019-05-22T20:27:52.171Z,99.90
2019-05-22T20:30:22.842Z,99.90
2019-05-22T20:32:51.955Z,99.90
2019-05-22T20:35:21.385Z,99.90
2019-05-22T20:37:49.980Z,99.90
2019-05-22T20:40:20.405Z,99.90
2019-05-22T20:42:49.331Z,99.90
2019-05-22T20:45:21.166Z,99.90
2019-05-22T20:47:54.735Z,99.90
2019-05-22T20:50:25.343Z,99.90
2019-05-22T20:52:55.191Z,99.90
2019-05-22T20:55:24.436Z,99.90
2019-05-22T20:57:53.335Z,99.90
2019-05-22T21:00:23.275Z,99.90
2019-05-22T21:02:54.886Z,99.90
2019-05-22T21:05:25.790Z,99.90
2019-05-22T21:07:58.759Z,99.90
2019-05-22T21:10:28.313Z,99.90
2019-05-22T21:12:57.613Z,99.90
2019-05-22T21:15:28.735Z,99.90
2019-05-22T21:17:59.856Z,99.90
2019-05-22T21:20:30.155Z,99.90
2019-05-22T21:22:59.111Z,99.90
2019-05-22T21:25:28.875Z,99.90
2019-05-22T21:27:57.511Z,99.90
2019-05-22T21:30:27.019Z,99.90
2019-05-22T21:32:55.956Z,99.90
2019-05-22T21:35:25.360Z,99.90
2019-05-22T21:37:55.661Z,99.90
2019-05-22T21:40:25.263Z,99.90
2019-05-22T21:42:55.809Z,99.90
2019-05-22T21:45:25.615Z,99.90
2019-05-22T21:47:54.938Z,99.90
2019-05-22T21:50:24.434Z,99.90
2019-05-22T21:52:53.542Z,99.90
2019-05-22T21:55:24.143Z,99.90
2019-05-22T21:57:53.728Z,99.90
2019-05-22T22:00:42.107Z,99.90
2019-05-22T22:03:13.088Z,99.90
2019-05-22T22:05:42.292Z,99.90
2019-05-22T22:08:11.855Z,99.90
2019-05-22T22:10:41.742Z,99.90
2019-05-22T22:13:10.767Z,99.90
2019-05-22T22:15:46.059Z,99.90
2019-05-22T22:18:15.670Z,99.90
2019-05-22T22:20:45.238Z,99.90
2019-05-22T22:23:15.631Z,99.90
2019-05-22T22:25:45.905Z,99.90
2019-05-22T22:28:16.394Z,99.90
2019-05-22T22:30:53.481Z,99.90
2019-05-22T22:33:26.823Z,99.90
2019-05-22T22:35:55.775Z,99.90
2019-05-22T22:38:29.152Z,99.90
2019-05-22T22:40:58.154Z,99.90
2019-05-22T22:43:30.557Z,99.90
2019-05-22T22:46:05.883Z,99.90
2019-05-22T22:48:36.963Z,99.90
2019-05-22T22:51:09.924Z,99.90
2019-05-22T22:53:38.824Z,99.90
2019-05-22T22:56:09.255Z,99.90
2019-05-22T22:58:39.030Z,99.90
2019-05-22T23:01:10.740Z,99.90
2019-05-22T23:03:41.924Z,99.90
2019-05-22T23:06:12.587Z,99.90
2019-05-22T23:08:41.971Z,99.90
2019-05-22T23:11:10.978Z,99.90
2019-05-22T23:13:40.812Z,99.90
2019-05-22T23:16:11.552Z,99.90
2019-05-22T23:18:46.994Z,99.90
2019-05-22T23:21:16.109Z,99.90
2019-05-22T23:26:34.343Z,99.90
2019-05-22T23:29:03.243Z,99.90
2019-05-22T23:31:34.111Z,99.90
2019-05-22T23:34:05.533Z,99.90
2019-05-22T23:36:36.039Z,99.90
2019-05-22T23:39:08.584Z,99.90
2019-05-22T23:41:39.314Z,99.90
2019-05-22T23:44:11.149Z,99.90
2019-05-22T23:46:40.989Z,99.90
2019-05-22T23:49:10.160Z,99.90
2019-05-22T23:51:39.284Z,99.90
2019-05-22T23:54:30.717Z,99.90
2019-05-22T23:57:01.024Z,99.90
2019-05-22T23:59:32.700Z,99.90
